Time;durP1;ratioP1;P1;durP2;ratioP2;P2;SDS_P1;SDS_P2;PMS_P1;PMS_P2;Temp;Humidity;BMP_temperature;BMP_pressure;BME280_temperature;BME280_humidity;BME280_pressure;Samples;Min_cycle;Max_cycle;Signal;HPM_P1;HPM_P2
2021/10/13 00:00:59;;;;;;;;;6.00;5.00;;;;;23.73;41.85;102369.38;5076794;28;45522;-68
2021/10/13 00:03:24;;;;;;;;;2.25;2.25;;;;;23.73;41.78;102377.34;5069361;27;46308;-68
2021/10/13 00:05:50;;;;;;;;;3.25;2.75;;;;;23.73;42.15;102376.53;5075725;27;45463;-68
2021/10/13 00:08:15;;;;;;;;;5.00;3.75;;;;;23.72;41.42;102375.69;5072847;28;45395;-68
2021/10/13 00:10:42;;;;;;;;;5.50;3.25;;;;;23.73;41.58;102379.19;5077982;27;45427;-68
2021/10/13 00:13:07;;;;;;;;;6.00;4.00;;;;;23.72;41.46;102383.66;5073378;28;47073;-67
2021/10/13 00:15:33;;;;;;;;;2.75;2.75;;;;;23.73;42.05;102389.81;5076587;27;45327;-68
2021/10/13 00:17:58;;;;;;;;;2.00;2.00;;;;;23.71;41.65;102395.28;5068466;27;45395;-68
2021/10/13 00:20:24;;;;;;;;;4.25;3.00;;;;;23.63;42.04;102373.94;5074133;27;45640;-68
2021/10/13 00:22:49;;;;;;;;;5.00;3.50;;;;;23.62;41.82;102380.28;5073326;27;45468;-68
2021/10/13 00:25:14;;;;;;;;;4.00;4.00;;;;;23.70;41.97;102398.94;5078917;27;45415;-68
2021/10/13 00:27:40;;;;;;;;;4.00;4.00;;;;;23.69;41.89;102401.72;5072786;27;45505;-68
2021/10/13 00:30:06;;;;;;;;;4.00;4.00;;;;;23.67;42.19;102396.59;5071504;27;45557;-68
2021/10/13 00:32:31;;;;;;;;;3.50;3.50;;;;;23.68;41.51;102386.81;5075329;28;46889;-68
2021/10/13 00:34:57;;;;;;;;;4.50;3.25;;;;;23.69;41.58;102391.94;5078614;27;45467;-68
2021/10/13 00:37:22;;;;;;;;;3.50;3.50;;;;;23.63;42.01;102385.41;5071803;27;45490;-68
2021/10/13 00:39:48;;;;;;;;;4.75;4.00;;;;;23.60;41.38;102380.41;5056571;28;45626;-68
2021/10/13 00:42:14;;;;;;;;;4.50;3.00;;;;;23.61;41.60;102387.41;5068403;28;46024;-68
2021/10/13 00:44:40;;;;;;;;;5.25;4.00;;;;;23.67;41.52;102396.59;5075064;27;45507;-68
2021/10/13 00:47:05;;;;;;;;;2.00;2.00;;;;;23.66;41.60;102392.25;5077866;27;45238;-68
2021/10/13 00:49:31;;;;;;;;;3.50;3.00;;;;;23.68;41.45;102400.09;5074502;27;45642;-68
2021/10/13 00:51:58;;;;;;;;;4.00;3.75;;;;;23.67;41.45;102409.88;5074698;28;45454;-68
2021/10/13 00:54:24;;;;;;;;;5.00;5.00;;;;;23.66;41.74;102410.84;5070886;28;45463;-68
2021/10/13 00:56:49;;;;;;;;;4.50;4.00;;;;;23.68;41.45;102421.34;5071856;28;45363;-68
2021/10/13 00:59:15;;;;;;;;;4.75;3.75;;;;;23.67;41.95;102417.00;5075940;27;45676;-68
2021/10/13 01:01:50;;;;;;;;;4.50;4.00;;;;;23.68;41.71;102418.69;5077329;27;46205;-68
2021/10/13 01:04:31;;;;;;;;;3.25;2.50;;;;;23.67;41.43;102417.84;5074721;27;45302;-67
2021/10/13 01:07:03;;;;;;;;;3.25;3.25;;;;;23.67;41.61;102423.16;5067563;27;45609;-68
2021/10/13 01:09:37;;;;;;;;;4.25;4.25;;;;;23.67;41.57;102419.66;5072107;27;45650;-68
2021/10/13 01:12:21;;;;;;;;;5.50;5.00;;;;;23.59;41.58;102409.78;5073679;27;45573;-68
2021/10/13 01:14:58;;;;;;;;;3.75;3.75;;;;;23.67;41.98;102422.31;5068448;27;45534;-68
2021/10/13 01:17:35;;;;;;;;;4.75;4.00;;;;;23.52;41.94;102404.28;5065459;27;45487;-68
2021/10/13 01:20:13;;;;;;;;;3.25;3.25;;;;;23.67;41.66;102428.47;5070981;27;45513;-68
2021/10/13 01:22:53;;;;;;;;;3.00;3.00;;;;;23.67;41.22;102423.16;5074515;27;46203;-68
2021/10/13 01:25:48;;;;;;;;;3.50;3.50;;;;;23.67;41.73;102431.13;5070842;27;45282;-69
2021/10/13 01:28:18;;;;;;;;;4.25;3.00;;;;;23.37;41.35;102380.00;5072115;28;45605;-68
2021/10/13 01:30:48;;;;;;;;;5.00;4.00;;;;;23.67;41.65;102428.47;5067555;28;45665;-68
2021/10/13 01:33:23;;;;;;;;;5.50;4.25;;;;;23.68;41.28;102429.31;5074873;27;47205;-67
2021/10/13 01:35:53;;;;;;;;;4.00;4.00;;;;;23.63;41.23;102419.13;5078339;27;45406;-69
2021/10/13 01:38:24;;;;;;;;;4.00;4.00;;;;;23.68;41.74;102418.69;5074414;27;45286;-68
2021/10/13 01:40:52;;;;;;;;;3.75;2.00;;;;;23.45;41.58;102382.75;5077004;27;45436;-68
2021/10/13 01:43:20;;;;;;;;;4.75;3.75;;;;;23.67;41.50;102414.34;5069650;28;46403;-68
2021/10/13 01:45:49;;;;;;;;;3.50;3.00;;;;;23.66;41.74;102420.63;5073727;28;45321;-68
2021/10/13 01:48:17;;;;;;;;;3.00;3.00;;;;;23.66;41.83;102412.66;5070348;27;45452;-68
2021/10/13 01:50:46;;;;;;;;;3.00;3.00;;;;;23.57;41.55;102404.66;5069942;28;45396;-68
2021/10/13 01:53:15;;;;;;;;;2.75;2.75;;;;;23.66;41.84;102416.16;5071641;28;46217;-68
2021/10/13 01:55:43;;;;;;;;;3.00;3.00;;;;;23.65;41.84;102409.19;5072041;27;45419;-68
2021/10/13 01:58:10;;;;;;;;;3.50;3.50;;;;;23.51;41.45;102378.69;5074427;27;45852;-68
2021/10/13 02:00:36;;;;;;;;;4.00;3.00;;;;;23.65;41.47;102405.69;5076919;27;45532;-68
2021/10/13 02:03:08;;;;;;;;;2.75;2.75;;;;;23.63;41.89;102405.84;5071482;28;47101;-68
2021/10/13 02:05:37;;;;;;;;;6.00;4.00;;;;;23.49;41.58;102384.16;5076883;27;45391;-66
2021/10/13 02:08:04;;;;;;;;;3.50;3.50;;;;;23.63;41.90;102413.81;5071956;28;45412;-68
2021/10/13 02:10:30;;;;;;;;;4.00;4.00;;;;;23.65;41.82;102416.31;5072022;27;45386;-68
2021/10/13 02:12:59;;;;;;;;;6.00;5.00;;;;;23.63;41.77;102414.66;5070033;27;47124;-68
2021/10/13 02:15:26;;;;;;;;;3.00;2.25;;;;;23.48;41.88;102382.44;5072341;28;45582;-68
2021/10/13 02:17:55;;;;;;;;;6.00;4.00;;;;;23.12;41.93;102338.16;5073209;27;45526;-68
2021/10/13 02:20:22;;;;;;;;;3.00;3.00;;;;;23.62;41.53;102415.66;5075937;27;45350;-68
2021/10/13 02:22:59;;;;;;;;;2.50;2.50;;;;;23.62;41.72;102420.13;5073884;28;45338;-68
2021/10/13 02:25:33;;;;;;;;;3.00;3.00;;;;;23.62;41.37;102420.97;5067675;28;45495;-68
2021/10/13 02:28:17;;;;;;;;;5.50;4.00;;;;;23.61;41.77;102424.59;5053977;28;45421;-68
2021/10/13 02:30:44;;;;;;;;;4.00;4.00;;;;;23.58;41.18;102416.09;5071934;28;45351;-68
2021/10/13 02:33:10;;;;;;;;;4.25;4.25;;;;;23.62;41.55;102417.47;5073772;27;46470;-68
2021/10/13 02:35:35;;;;;;;;;4.50;4.50;;;;;23.62;41.61;102420.13;5066974;28;45573;-68
2021/10/13 02:38:01;;;;;;;;;3.75;3.00;;;;;23.63;41.52;102419.13;5057244;28;45513;-68
2021/10/13 02:40:26;;;;;;;;;5.25;4.50;;;;;23.62;41.53;102417.47;5072240;27;45384;-68
2021/10/13 02:42:53;;;;;;;;;2.75;2.00;;;;;23.61;41.18;102416.63;5079961;27;46089;-68
2021/10/13 02:45:19;;;;;;;;;4.75;4.00;;;;;23.61;41.19;102416.63;5071769;27;45500;-67
2021/10/13 02:47:54;;;;;;;;;4.00;4.00;;;;;23.62;41.57;102415.66;5069014;27;45542;-66
2021/10/13 02:50:23;;;;;;;;;3.25;3.25;;;;;23.58;41.47;102408.13;5073614;28;45344;-68
2021/10/13 02:52:54;;;;;;;;;6.00;4.50;;;;;23.52;41.31;102397.09;5076093;27;47085;-68
2021/10/13 02:55:24;;;;;;;;;6.00;3.00;;;;;23.63;41.09;102432.41;5069449;28;45375;-68
2021/10/13 02:58:02;;;;;;;;;3.50;3.50;;;;;23.63;40.96;102440.38;5073514;28;45463;-68
2021/10/13 03:00:31;;;;;;;;;3.75;3.75;;;;;23.62;41.17;102428.94;5075344;27;46906;-68
2021/10/13 03:03:07;;;;;;;;;5.00;4.00;;;;;23.63;41.47;102440.38;5066664;27;46247;-67
2021/10/13 03:05:34;;;;;;;;;4.00;4.00;;;;;23.60;41.47;102428.22;5064304;28;45619;-68
2021/10/13 03:08:02;;;;;;;;;5.75;4.25;;;;;23.56;41.63;102432.19;5073144;27;45510;-68
2021/10/13 03:10:33;;;;;;;;;3.00;3.00;;;;;23.54;41.61;102417.38;5074342;27;45479;-68
2021/10/13 03:13:02;;;;;;;;;3.50;2.50;;;;;23.62;40.97;102431.59;5068876;28;46512;-68
2021/10/13 03:15:30;;;;;;;;;3.00;3.00;;;;;23.62;41.30;102438.72;5072017;28;45570;-66
2021/10/13 03:17:57;;;;;;;;;3.00;3.00;;;;;23.62;41.47;102452.84;5066135;27;45439;-68
2021/10/13 03:20:25;;;;;;;;;4.00;4.00;;;;;23.59;41.25;102447.00;5072389;27;45404;-68
2021/10/13 03:22:54;;;;;;;;;3.00;3.00;;;;;23.62;41.02;102449.34;5074794;27;45936;-68
2021/10/13 03:25:37;;;;;;;;;4.25;3.50;;;;;23.56;41.30;102453.44;5076190;28;45358;-68
2021/10/13 03:28:04;;;;;;;;;4.50;3.00;;;;;23.61;41.37;102464.44;5069623;28;45374;-68
2021/10/13 03:30:30;;;;;;;;;6.50;4.00;;;;;23.61;41.30;102467.09;5074858;28;45514;-68
2021/10/13 03:32:56;;;;;;;;;5.00;4.25;;;;;23.61;41.03;102463.59;5076775;27;45866;-68
2021/10/13 03:35:31;;;;;;;;;3.00;2.00;;;;;23.60;41.25;102476.06;5077068;27;45553;-68
2021/10/13 03:37:58;;;;;;;;;3.00;3.00;;;;;23.58;41.22;102472.72;5072041;28;45424;-68
2021/10/13 03:40:25;;;;;;;;;3.00;3.00;;;;;23.59;41.67;102474.41;5081658;27;45530;-68
2021/10/13 03:42:51;;;;;;;;;5.00;3.50;;;;;23.60;41.09;102476.06;5076697;28;46064;-68
2021/10/13 03:45:19;;;;;;;;;4.00;2.00;;;;;23.51;41.28;102461.03;5076105;28;45371;-68
2021/10/13 03:47:45;;;;;;;;;2.50;2.50;;;;;23.59;41.31;102477.06;5072173;27;45632;-68
2021/10/13 03:50:11;;;;;;;;;4.25;3.25;;;;;23.50;41.13;102468.16;5074424;27;45547;-68
2021/10/13 03:52:38;;;;;;;;;3.75;3.75;;;;;23.59;41.41;102481.53;5076200;27;45577;-68
2021/10/13 03:55:09;;;;;;;;;4.00;3.00;;;;;23.57;41.48;102480.84;5074069;27;45852;-68
2021/10/13 03:57:35;;;;;;;;;4.00;3.25;;;;;23.52;41.29;102471.50;5059903;27;45501;-68
2021/10/13 04:00:03;;;;;;;;;3.50;3.00;;;;;23.58;41.54;102478.03;5077079;27;45504;-68
2021/10/13 04:02:28;;;;;;;;;3.75;3.75;;;;;23.59;41.17;102481.53;5079004;27;46233;-68
2021/10/13 04:04:53;;;;;;;;;3.00;3.00;;;;;23.59;41.43;102478.88;5073431;27;45470;-68
2021/10/13 04:07:18;;;;;;;;;3.25;3.25;;;;;23.57;41.36;102479.03;5076731;27;45563;-68
2021/10/13 04:09:44;;;;;;;;;3.75;3.50;;;;;23.58;41.06;102478.03;5076724;28;45508;-69
2021/10/13 04:12:09;;;;;;;;;5.50;3.00;;;;;23.59;41.55;102470.91;5087548;27;46987;-68
2021/10/13 04:14:35;;;;;;;;;3.25;3.25;;;;;23.49;41.50;102463.84;5074107;27;45480;-68
2021/10/13 04:17:00;;;;;;;;;2.75;2.75;;;;;23.60;40.94;102483.22;5073814;27;45540;-68
2021/10/13 04:19:25;;;;;;;;;3.00;2.00;;;;;23.61;41.34;102492.84;5080835;27;46951;-68
2021/10/13 04:21:51;;;;;;;;;5.75;3.75;;;;;23.60;41.20;102477.91;5055457;28;47095;-68
2021/10/13 04:24:16;;;;;;;;;4.00;3.00;;;;;23.59;40.95;102479.72;5075872;28;45492;-68
2021/10/13 04:26:42;;;;;;;;;3.00;3.00;;;;;23.59;41.20;102485.03;5069736;28;45484;-68
2021/10/13 04:29:07;;;;;;;;;3.00;3.00;;;;;23.60;40.93;102485.88;5070958;28;45428;-68
2021/10/13 04:31:33;;;;;;;;;4.00;3.50;;;;;23.59;41.21;102494.81;5070144;27;45522;-68
2021/10/13 04:33:58;;;;;;;;;2.75;2.75;;;;;23.59;40.76;102500.13;5073361;28;45482;-68
2021/10/13 04:36:23;;;;;;;;;4.00;3.75;;;;;23.61;40.92;102503.47;5074359;27;45521;-68
2021/10/13 04:38:49;;;;;;;;;4.75;4.75;;;;;23.47;40.80;102472.94;5058265;28;45521;-68
2021/10/13 04:41:14;;;;;;;;;4.00;4.00;;;;;23.60;40.95;102493.84;5074705;27;46026;-68
2021/10/13 04:43:39;;;;;;;;;5.25;3.75;;;;;23.60;40.94;102499.97;5074312;27;50980;-68
2021/10/13 04:46:05;;;;;;;;;4.00;4.00;;;;;23.58;41.36;102493.97;5075265;28;47898;-68
2021/10/13 04:48:30;;;;;;;;;4.00;4.00;;;;;23.60;40.81;102494.66;5071633;27;45724;-68
2021/10/13 04:50:55;;;;;;;;;3.00;3.00;;;;;23.59;40.97;102500.97;5075359;28;46947;-68
2021/10/13 04:53:21;;;;;;;;;3.75;3.75;;;;;23.59;41.48;102492.16;5056873;28;45432;-68
2021/10/13 04:55:46;;;;;;;;;3.50;3.50;;;;;23.59;41.21;102489.50;5075368;28;45345;-68
2021/10/13 04:58:11;;;;;;;;;3.50;3.50;;;;;23.59;40.90;102492.16;5075358;27;45357;-68
2021/10/13 05:00:37;;;;;;;;;4.25;3.25;;;;;23.58;41.20;102490.47;5073763;27;46314;-68
2021/10/13 05:03:02;;;;;;;;;4.50;3.25;;;;;23.57;41.00;102494.13;5072074;27;45487;-68
2021/10/13 05:05:27;;;;;;;;;5.00;5.00;;;;;23.56;41.20;102497.78;5077484;27;45437;-68
2021/10/13 05:07:53;;;;;;;;;3.25;3.25;;;;;23.56;40.89;102492.44;5075654;27;45486;-68
2021/10/13 05:10:18;;;;;;;;;3.50;3.25;;;;;23.56;41.05;102501.25;5076020;27;45472;-68
2021/10/13 05:12:43;;;;;;;;;3.25;3.25;;;;;23.52;40.88;102500.72;5072524;28;45468;-68
2021/10/13 05:15:09;;;;;;;;;3.00;3.00;;;;;23.56;41.08;102505.75;5069252;27;45392;-68
2021/10/13 05:17:34;;;;;;;;;4.00;4.00;;;;;23.55;41.01;102502.25;5072815;28;45244;-68
2021/10/13 05:20:00;;;;;;;;;2.50;2.50;;;;;23.47;41.38;102491.53;5071688;28;45510;-68
2021/10/13 05:22:25;;;;;;;;;3.00;3.00;;;;;23.48;41.24;102501.13;5074671;27;45513;-68
2021/10/13 05:24:50;;;;;;;;;2.00;2.00;;;;;23.55;41.21;102510.22;5073700;27;45429;-68
2021/10/13 05:27:16;;;;;;;;;3.00;3.00;;;;;23.48;40.82;102499.31;5067416;28;45348;-68
2021/10/13 05:29:41;;;;;;;;;2.00;2.00;;;;;23.54;41.15;102516.53;5071987;28;46269;-68
2021/10/13 05:32:07;;;;;;;;;3.25;3.00;;;;;23.56;41.23;102521.69;5074719;27;45372;-68
2021/10/13 05:34:32;;;;;;;;;3.25;3.25;;;;;23.52;40.77;102519.31;5074724;28;45474;-68
2021/10/13 05:36:57;;;;;;;;;1.25;1.25;;;;;23.52;41.10;102511.34;5075094;28;45355;-69
2021/10/13 05:39:23;;;;;;;;;3.00;3.00;;;;;23.54;41.21;102524.50;5069823;27;45580;-68
2021/10/13 05:41:48;;;;;;;;;3.25;3.25;;;;;23.53;41.15;102520.16;5072971;27;45487;-68
2021/10/13 05:44:13;;;;;;;;;3.00;3.00;;;;;23.54;41.08;102526.31;5074256;28;45352;-68
2021/10/13 05:46:39;;;;;;;;;4.25;4.25;;;;;23.54;41.24;102529.81;5074135;28;45483;-68
2021/10/13 05:49:04;;;;;;;;;5.00;3.75;;;;;23.52;40.80;102521.97;5079182;27;46126;-68
2021/10/13 05:51:29;;;;;;;;;3.00;3.00;;;;;23.54;41.41;102529.81;5073155;28;45490;-68
2021/10/13 05:53:55;;;;;;;;;3.50;3.50;;;;;23.35;41.08;102510.31;5074423;28;45576;-68
2021/10/13 05:56:20;;;;;;;;;4.50;3.00;;;;;23.52;40.99;102529.94;5071214;27;45406;-68
2021/10/13 05:58:47;;;;;;;;;3.00;3.00;;;;;23.54;41.45;102536.94;5075188;27;45486;-68
2021/10/13 06:01:17;;;;;;;;;4.25;3.50;;;;;23.53;41.06;102541.41;5068007;27;45473;-68
2021/10/13 06:03:43;;;;;;;;;4.25;3.25;;;;;23.54;41.27;102540.44;5074688;28;45454;-68
2021/10/13 06:06:08;;;;;;;;;2.00;2.00;;;;;23.45;41.40;102531.50;5079525;27;45534;-68
2021/10/13 06:08:33;;;;;;;;;2.75;2.75;;;;;23.45;40.75;102538.63;5068903;28;51222;-68
2021/10/13 06:10:59;;;;;;;;;3.00;3.00;;;;;23.52;41.24;102561.00;5071422;27;45411;-68
2021/10/13 06:13:24;;;;;;;;;2.25;2.25;;;;;23.55;40.83;102576.63;5077138;27;45478;-68
2021/10/13 06:15:51;;;;;;;;;3.00;3.00;;;;;23.55;41.36;102567.84;5079133;27;45466;-66
2021/10/13 06:18:16;;;;;;;;;4.00;3.50;;;;;23.55;41.30;102565.19;5068305;27;47046;-65
2021/10/13 06:20:42;;;;;;;;;3.00;3.00;;;;;23.55;41.09;102576.63;5071281;27;45466;-65
2021/10/13 06:23:07;;;;;;;;;2.25;2.25;;;;;23.54;40.82;102568.81;5076166;27;45406;-65
2021/10/13 06:25:32;;;;;;;;;4.50;3.25;;;;;23.56;40.97;102577.47;5072394;28;45486;-65
2021/10/13 06:27:58;;;;;;;;;2.00;2.00;;;;;23.56;41.11;102578.31;5066962;28;45467;-64
2021/10/13 06:30:23;;;;;;;;;5.00;4.00;;;;;23.54;40.99;102574.13;5065575;28;45444;-65
2021/10/13 06:32:49;;;;;;;;;3.00;3.00;;;;;23.58;41.42;102588.78;5073646;27;45945;-64
2021/10/13 06:35:14;;;;;;;;;2.75;2.75;;;;;23.58;40.91;102586.13;5070415;28;45474;-67
2021/10/13 06:37:39;;;;;;;;;2.00;2.00;;;;;23.58;41.34;102583.47;5072045;27;47224;-66
2021/10/13 06:40:06;;;;;;;;;3.00;3.00;;;;;23.58;41.41;102584.31;5071420;28;45543;-65
2021/10/13 06:42:31;;;;;;;;;4.00;4.00;;;;;23.60;41.50;102592.16;5072627;28;45489;-66
2021/10/13 06:44:56;;;;;;;;;4.00;4.00;;;;;23.59;41.52;102593.97;5074579;28;45502;-66
2021/10/13 06:47:21;;;;;;;;;3.75;3.00;;;;;23.61;41.25;102597.31;5071513;28;46044;-67
2021/10/13 06:49:47;;;;;;;;;4.00;2.25;;;;;23.60;40.83;102592.97;5061050;28;49612;-66
2021/10/13 06:52:12;;;;;;;;;2.75;2.75;;;;;23.61;41.37;102586.69;5059007;28;45388;-66
2021/10/13 06:54:37;;;;;;;;;4.00;4.00;;;;;23.57;41.03;102581.81;5064990;28;45396;-66
2021/10/13 06:57:03;;;;;;;;;3.00;3.00;;;;;23.62;40.92;102595.50;5066655;27;45613;-66
2021/10/13 06:59:28;;;;;;;;;3.50;3.00;;;;;23.51;41.41;102578.75;5066635;28;45570;-67
2021/10/13 07:01:53;;;;;;;;;2.50;2.50;;;;;23.54;41.20;102580.28;5042885;28;45518;-66
2021/10/13 07:04:19;;;;;;;;;3.00;3.00;;;;;23.58;41.25;102578.16;5076632;28;45585;-66
2021/10/13 07:06:44;;;;;;;;;3.50;3.50;;;;;23.66;40.85;102596.00;5059686;28;45500;-66
2021/10/13 07:09:09;;;;;;;;;4.50;4.50;;;;;23.63;41.21;102600.63;5060466;28;45422;-66
2021/10/13 07:11:35;;;;;;;;;5.00;3.00;;;;;23.65;41.30;102603.16;5061158;28;45548;-66
2021/10/13 07:14:03;;;;;;;;;4.00;3.25;;;;;23.65;41.38;102608.47;5060962;28;45357;-66
2021/10/13 07:16:29;;;;;;;;;2.25;2.25;;;;;23.66;40.96;102607.47;5060378;28;46135;-67
2021/10/13 07:18:54;;;;;;;;;3.75;3.75;;;;;23.67;41.19;102613.63;5074889;28;45337;-66
2021/10/13 07:21:19;;;;;;;;;6.00;2.25;;;;;23.57;40.79;102589.78;5075774;28;45387;-66
2021/10/13 07:23:44;;;;;;;;;4.00;3.00;;;;;23.69;40.84;102616.97;5076351;28;45428;-66
2021/10/13 07:26:10;;;;;;;;;3.50;3.00;;;;;23.68;41.45;102610.81;5076236;28;46219;-66
2021/10/13 07:28:39;;;;;;;;;3.00;3.00;;;;;23.63;40.70;102608.63;5076307;28;45450;-66
2021/10/13 07:31:05;;;;;;;;;3.00;3.00;;;;;23.67;41.11;102614.47;5076835;28;45285;-66
2021/10/13 07:33:30;;;;;;;;;4.00;3.25;;;;;23.68;40.80;102610.81;5075672;28;45388;-66
2021/10/13 07:35:56;;;;;;;;;3.00;3.00;;;;;23.68;41.42;102623.28;5076269;28;46021;-66
2021/10/13 07:38:21;;;;;;;;;3.00;3.00;;;;;23.70;40.92;102611.53;5075273;28;45439;-66
2021/10/13 07:40:48;;;;;;;;;2.25;2.00;;;;;23.78;41.37;102618.75;5075651;28;45463;-66
2021/10/13 07:43:14;;;;;;;;;4.00;3.00;;;;;23.83;41.31;102624.47;5076163;28;45296;-67
2021/10/13 07:45:41;;;;;;;;;6.25;5.00;;;;;23.84;41.01;102615.50;5077960;28;46070;-66
2021/10/13 07:48:06;;;;;;;;;5.25;4.00;;;;;23.56;40.61;102575.66;5076427;28;45358;-66
2021/10/13 07:50:31;;;;;;;;;4.50;3.50;;;;;23.84;40.74;102610.16;5075853;28;45490;-65
2021/10/13 07:52:57;;;;;;;;;2.00;2.00;;;;;23.96;40.42;102629.41;5076116;28;45230;-66
2021/10/13 07:55:22;;;;;;;;;4.75;3.75;;;;;24.01;41.11;102626.31;5076212;28;46960;-66
2021/10/13 07:57:47;;;;;;;;;3.00;3.00;;;;;24.05;41.08;102629.47;5078071;28;45381;-66
2021/10/13 08:00:16;;;;;;;;;4.50;3.25;;;;;24.05;41.00;102624.16;5075637;28;45352;-66
2021/10/13 08:02:44;;;;;;;;;3.00;3.00;;;;;24.16;40.98;102633.75;5073341;28;45573;-66
2021/10/13 08:05:10;;;;;;;;;3.00;2.00;;;;;24.22;40.15;102627.00;5075145;28;45430;-66
2021/10/13 08:07:35;;;;;;;;;5.25;3.00;;;;;24.34;40.38;102632.94;5076232;28;46235;-66
2021/10/13 08:10:00;;;;;;;;;4.00;4.00;;;;;24.32;40.31;102626.94;5076948;28;45301;-66
2021/10/13 08:12:26;;;;;;;;;4.00;4.00;;;;;24.34;40.44;102635.59;5074651;28;49516;-66
2021/10/13 08:14:51;;;;;;;;;7.00;4.00;;;;;24.32;40.52;102634.94;5075819;28;46301;-66
2021/10/13 08:17:16;;;;;;;;;3.50;3.00;;;;;24.33;40.27;102640.09;5056010;28;45368;-66
2021/10/13 08:19:42;;;;;;;;;4.00;4.00;;;;;24.34;40.39;102636.44;5075612;28;45509;-66
2021/10/13 08:22:07;;;;;;;;;3.50;2.00;;;;;24.20;40.10;102621.81;5076526;28;45508;-66
2021/10/13 08:24:34;;;;;;;;;5.75;4.00;;;;;24.35;40.13;102645.25;5076849;28;47070;-66
2021/10/13 08:26:59;;;;;;;;;3.00;3.00;;;;;24.36;39.99;102649.59;5075810;28;45499;-66
2021/10/13 08:29:25;;;;;;;;;3.00;3.00;;;;;24.37;40.07;102652.09;5075460;28;45406;-66
2021/10/13 08:31:50;;;;;;;;;5.00;4.00;;;;;24.37;39.91;102652.09;5074464;28;45310;-66
2021/10/13 08:34:15;;;;;;;;;3.00;3.00;;;;;24.39;39.86;102652.78;5075063;28;46787;-66
2021/10/13 08:36:41;;;;;;;;;4.00;4.00;;;;;24.41;40.31;102655.28;5077379;28;45300;-66
2021/10/13 08:39:06;;;;;;;;;7.25;5.75;;;;;24.41;40.02;102655.28;5075471;28;45460;-66
2021/10/13 08:41:31;;;;;;;;;5.50;4.50;;;;;24.44;40.03;102659.47;5073732;28;45473;-66
2021/10/13 08:43:57;;;;;;;;;4.00;4.00;;;;;24.46;40.02;102657.50;5075079;28;46149;-66
2021/10/13 08:46:22;;;;;;;;;3.50;3.25;;;;;24.47;40.22;102661.81;5075404;28;45459;-65
2021/10/13 08:48:48;;;;;;;;;3.25;3.25;;;;;24.38;40.05;102642.31;5077030;28;45305;-66
2021/10/13 08:51:13;;;;;;;;;4.75;3.75;;;;;24.50;40.25;102664.19;5073524;28;45293;-66
2021/10/13 08:53:39;;;;;;;;;3.25;3.25;;;;;24.52;39.99;102664.88;5075242;28;45339;-66
2021/10/13 08:56:04;;;;;;;;;5.25;3.50;;;;;24.53;40.08;102663.88;5075014;28;45361;-66
2021/10/13 08:58:29;;;;;;;;;4.50;4.00;;;;;24.53;39.94;102669.22;5075417;28;45381;-66
2021/10/13 09:01:04;;;;;;;;;5.25;4.00;;;;;24.55;40.12;102661.91;5076892;28;45363;-66
2021/10/13 09:03:40;;;;;;;;;4.25;4.25;;;;;24.57;39.87;102659.06;5075527;28;46246;-66
2021/10/13 09:06:22;;;;;;;;;3.50;3.50;;;;;24.58;39.88;102661.59;5075137;28;45399;-66
2021/10/13 09:09:02;;;;;;;;;3.00;3.00;;;;;24.59;39.54;102660.59;5075134;28;45363;-66
2021/10/13 09:11:46;;;;;;;;;5.00;3.25;;;;;24.60;39.93;102659.63;5055044;28;45471;-65
2021/10/13 09:14:11;;;;;;;;;4.50;4.00;;;;;24.61;39.90;102671.94;5054054;28;45906;-66
2021/10/13 09:16:55;;;;;;;;;7.50;4.75;;;;;24.62;40.26;102665.63;5074074;28;45451;-66
2021/10/13 09:19:26;;;;;;;;;3.50;3.50;;;;;24.63;39.85;102658.47;5074033;28;45617;-66
2021/10/13 09:21:55;;;;;;;;;3.25;3.25;;;;;24.64;39.88;102660.16;5076815;28;45316;-66
2021/10/13 09:24:24;;;;;;;;;4.00;4.00;;;;;24.65;39.76;102660.97;5073050;28;50434;-66
2021/10/13 09:26:50;;;;;;;;;4.50;4.50;;;;;24.66;39.69;102657.31;5074634;28;45349;-66
2021/10/13 09:29:15;;;;;;;;;3.50;3.50;;;;;24.66;40.01;102652.00;5073030;28;45535;-66
2021/10/13 09:31:41;;;;;;;;;3.00;3.00;;;;;24.66;39.84;102654.66;5074607;28;45423;-66
2021/10/13 09:34:09;;;;;;;;;4.00;4.00;;;;;24.67;39.79;102659.00;5075386;28;46308;-66
2021/10/13 09:36:43;;;;;;;;;6.25;5.25;;;;;24.67;39.72;102656.34;5076334;28;45457;-67
2021/10/13 09:39:17;;;;;;;;;3.00;3.00;;;;;24.68;39.58;102666.84;5074618;28;45446;-66
2021/10/13 09:42:01;;;;;;;;;6.00;4.75;;;;;24.66;39.86;102660.84;5074608;28;45415;-66
2021/10/13 09:44:29;;;;;;;;;4.25;4.25;;;;;24.65;39.81;102668.94;5074517;28;46199;-66
2021/10/13 09:46:59;;;;;;;;;4.75;3.00;;;;;24.64;39.91;102660.16;5074191;28;45331;-66
2021/10/13 09:49:45;;;;;;;;;4.75;3.00;;;;;24.65;39.92;102666.28;5057254;28;45388;-66
2021/10/13 09:52:14;;;;;;;;;5.00;3.50;;;;;24.64;39.93;102665.47;5054357;28;45442;-66
2021/10/13 09:54:42;;;;;;;;;4.50;3.75;;;;;24.63;39.97;102661.97;5074389;28;46680;-66
2021/10/13 09:57:21;;;;;;;;;4.00;4.00;;;;;24.63;39.77;102659.31;5074143;28;45383;-66
2021/10/13 10:00:07;;;;;;;;;2.75;2.75;;;;;24.65;39.91;102663.63;5073068;28;45435;-66
2021/10/13 10:02:57;;;;;;;;;5.00;3.00;;;;;24.65;39.61;102666.28;5073402;28;45292;-66
2021/10/13 10:05:29;;;;;;;;;4.25;3.00;;;;;24.65;39.73;102668.94;5068459;28;45558;-66
2021/10/13 10:08:07;;;;;;;;;2.25;2.25;;;;;24.65;39.50;102666.28;5072577;28;45577;-66
2021/10/13 10:10:35;;;;;;;;;3.00;3.00;;;;;24.62;39.72;102665.63;5058685;28;45396;-66
2021/10/13 10:13:05;;;;;;;;;4.00;4.00;;;;;24.62;40.08;102662.94;5075559;28;45470;-65
2021/10/13 10:15:36;;;;;;;;;4.25;3.75;;;;;24.62;39.56;102662.09;5074798;28;46225;-66
2021/10/13 10:18:24;;;;;;;;;3.50;3.50;;;;;24.58;39.81;102661.59;5073939;28;45466;-66
2021/10/13 10:20:50;;;;;;;;;4.00;4.00;;;;;24.47;39.62;102644.03;5073897;28;45312;-66
2021/10/13 10:23:36;;;;;;;;;4.50;4.50;;;;;24.59;40.06;102662.44;5073816;28;45430;-66
2021/10/13 10:26:24;;;;;;;;;4.75;3.75;;;;;24.58;39.52;102661.59;5055132;28;48142;-66
2021/10/13 10:28:49;;;;;;;;;3.50;3.00;;;;;24.58;39.49;102666.94;5073434;28;45325;-66
2021/10/13 10:31:27;;;;;;;;;6.75;4.00;;;;;24.55;39.59;102661.91;5073583;28;45404;-66
2021/10/13 10:34:06;;;;;;;;;2.00;2.00;;;;;24.53;39.50;102663.88;5071408;28;45759;-66
2021/10/13 10:36:34;;;;;;;;;3.50;3.00;;;;;24.52;40.00;102670.19;5074763;28;46135;-66
2021/10/13 10:39:00;;;;;;;;;3.00;3.00;;;;;24.42;39.64;102650.81;5071975;28;45312;-66
2021/10/13 10:41:45;;;;;;;;;2.00;2.00;;;;;24.51;40.02;102668.53;5073681;27;45260;-66
2021/10/13 10:44:41;;;;;;;;;3.75;3.75;;;;;24.50;39.95;102666.84;5072856;28;45431;-65
2021/10/13 10:47:07;;;;;;;;;3.50;3.00;;;;;24.50;39.85;102669.50;5071758;28;47170;-65
2021/10/13 10:49:55;;;;;;;;;2.50;2.50;;;;;24.49;39.97;102674.00;5071433;27;45371;-66
2021/10/13 10:52:25;;;;;;;;;4.75;4.00;;;;;24.49;40.07;102665.16;5074852;27;45421;-66
2021/10/13 10:54:54;;;;;;;;;4.50;3.00;;;;;24.48;40.11;102663.50;5070133;27;45640;-66
2021/10/13 10:57:34;;;;;;;;;4.50;3.00;;;;;24.49;39.73;102666.00;5073218;28;46294;-65
2021/10/13 11:00:04;;;;;;;;;4.00;2.00;;;;;24.48;39.77;102664.34;5073426;27;45390;-66
2021/10/13 11:02:30;;;;;;;;;3.00;3.00;;;;;24.50;40.11;102665.03;5070161;27;45499;-66
2021/10/13 11:05:11;;;;;;;;;4.75;4.00;;;;;24.52;39.88;102672.84;5070349;27;45452;-66
2021/10/13 11:07:41;;;;;;;;;6.00;5.00;;;;;24.52;39.77;102667.53;5071838;27;48074;-66
2021/10/13 11:10:09;;;;;;;;;3.00;3.00;;;;;24.52;40.39;102670.19;5071314;28;45490;-66
2021/10/13 11:13:01;;;;;;;;;2.00;2.00;;;;;24.51;39.82;102673.84;5074453;27;45462;-67
2021/10/13 11:15:29;;;;;;;;;4.50;3.00;;;;;24.51;39.90;102666.69;5070797;27;45458;-66
2021/10/13 11:17:55;;;;;;;;;4.50;3.00;;;;;24.52;40.11;102672.84;5069811;27;48074;-66
2021/10/13 11:20:24;;;;;;;;;4.00;3.75;;;;;24.50;40.26;102664.19;5076586;27;45451;-66
2021/10/13 11:22:57;;;;;;;;;3.25;3.25;;;;;24.52;39.84;102667.53;5075984;27;45345;-65
2021/10/13 11:25:23;;;;;;;;;4.00;4.00;;;;;24.53;39.86;102671.88;5075238;27;45434;-66
2021/10/13 11:28:05;;;;;;;;;3.00;3.00;;;;;24.52;40.07;102673.69;5073850;27;46291;-65
2021/10/13 11:30:36;;;;;;;;;4.00;4.00;;;;;24.53;39.94;102671.88;5072017;27;45717;-66